createdAt,value
2023-05-19T00:02:26.028Z,10.37
2023-05-19T00:05:47.817Z,10.31
2023-05-19T00:09:10.407Z,10.25
2023-05-19T00:12:32.693Z,10.19
2023-05-19T00:15:55.585Z,10.11
2023-05-19T00:19:18.806Z,10.06
2023-05-19T00:22:40.414Z,9.99
2023-05-19T00:26:02.248Z,9.96
2023-05-19T00:29:24.121Z,9.95
2023-05-19T00:32:47.268Z,9.88
2023-05-19T00:36:11.157Z,9.83
2023-05-19T00:39:32.996Z,9.77
2023-05-19T00:42:54.736Z,9.70
2023-05-19T00:46:16.738Z,9.67
2023-05-19T00:49:38.518Z,9.65
2023-05-19T00:53:02.062Z,9.63
2023-05-19T00:56:24.453Z,9.62
2023-05-19T00:59:46.090Z,9.65
2023-05-19T01:03:11.504Z,9.66
2023-05-19T01:06:35.281Z,9.69
2023-05-19T01:09:59.347Z,9.69
2023-05-19T01:13:21.184Z,9.68
2023-05-19T01:16:51.664Z,9.67
2023-05-19T01:20:21.916Z,9.68
2023-05-19T01:23:54.153Z,9.66
2023-05-19T01:27:34.742Z,9.68
2023-05-19T01:30:59.359Z,9.68
2023-05-19T01:34:24.851Z,9.72
2023-05-19T01:37:47.878Z,9.71
2023-05-19T01:41:10.697Z,9.70
2023-05-19T01:44:34.088Z,9.68
2023-05-19T01:48:01.143Z,9.67
2023-05-19T01:51:22.825Z,9.68
2023-05-19T01:54:44.668Z,9.69
2023-05-19T01:58:12.975Z,9.67
2023-05-19T02:01:42.929Z,9.66
2023-05-19T02:05:14.505Z,9.62
2023-05-19T02:08:43.958Z,9.62
2023-05-19T02:12:12.585Z,9.62
2023-05-19T02:15:39.459Z,9.65
2023-05-19T02:19:01.185Z,9.65
2023-05-19T02:22:24.398Z,9.64
2023-05-19T02:25:45.949Z,9.65
2023-05-19T02:29:07.658Z,9.69
2023-05-19T02:32:30.061Z,9.70
2023-05-19T02:35:51.725Z,9.72
2023-05-19T02:39:14.361Z,9.70
2023-05-19T02:42:36.533Z,9.72
2023-05-19T02:45:58.641Z,9.72
2023-05-19T02:49:21.503Z,9.68
2023-05-19T02:52:43.405Z,9.67
2023-05-19T02:56:07.300Z,9.64
2023-05-19T02:59:29.191Z,9.61
2023-05-19T03:02:52.981Z,9.55
2023-05-19T03:06:15.699Z,9.49
2023-05-19T03:09:37.638Z,9.42
2023-05-19T03:13:00.518Z,9.35
2023-05-19T03:16:21.991Z,9.30
2023-05-19T03:19:44.043Z,9.26
2023-05-19T03:23:05.598Z,9.23
2023-05-19T03:26:29.299Z,9.22
2023-05-19T03:29:54.015Z,9.23
2023-05-19T03:33:16.386Z,9.24
2023-05-19T03:36:39.890Z,9.24
2023-05-19T03:40:07.455Z,9.27
2023-05-19T03:43:31.328Z,9.27
2023-05-19T03:46:58.839Z,9.24
2023-05-19T03:50:27.357Z,9.21
2023-05-19T03:53:55.897Z,9.18
2023-05-19T03:57:17.769Z,9.18
2023-05-19T04:00:39.665Z,9.18
2023-05-19T04:04:03.026Z,9.19
2023-05-19T04:07:24.844Z,9.19
2023-05-19T04:10:46.420Z,9.21
2023-05-19T04:14:09.757Z,9.22
2023-05-19T04:17:31.712Z,9.27
2023-05-19T04:20:54.776Z,9.28
2023-05-19T04:24:16.294Z,9.28
2023-05-19T04:27:38.984Z,9.27
2023-05-19T04:31:01.628Z,9.31
2023-05-19T04:34:24.160Z,9.31
2023-05-19T04:37:48.484Z,9.36
2023-05-19T04:41:12.985Z,9.38
2023-05-19T04:44:36.364Z,9.44
2023-05-19T04:47:58.719Z,9.43
2023-05-19T04:51:20.313Z,9.48
2023-05-19T04:54:44.259Z,9.52
2023-05-19T04:58:08.200Z,9.54
2023-05-19T05:01:31.366Z,9.58
2023-05-19T05:04:54.415Z,9.63
2023-05-19T05:08:21.949Z,9.66
2023-05-19T05:11:47.170Z,9.73
2023-05-19T05:15:10.045Z,9.79
2023-05-19T05:18:32.674Z,9.86
2023-05-19T05:21:54.926Z,9.94
2023-05-19T05:25:18.097Z,10.04
2023-05-19T05:28:42.642Z,10.16
2023-05-19T05:32:04.126Z,10.24
2023-05-19T05:35:25.803Z,10.34
2023-05-19T05:38:48.008Z,10.43
2023-05-19T05:42:10.205Z,10.54
2023-05-19T05:45:34.972Z,10.66
2023-05-19T05:48:57.677Z,10.76
2023-05-19T05:52:21.916Z,10.88
2023-05-19T05:55:45.195Z,10.96
2023-05-19T05:59:07.244Z,11.06
2023-05-19T06:02:30.339Z,11.15
2023-05-19T06:05:53.412Z,11.25
2023-05-19T06:09:15.254Z,11.34
2023-05-19T06:12:40.012Z,11.41
2023-05-19T06:16:03.363Z,11.50
2023-05-19T06:19:29.635Z,11.57
2023-05-19T06:22:51.294Z,11.60
2023-05-19T06:26:15.434Z,11.67
2023-05-19T06:29:37.170Z,11.78
2023-05-19T06:33:01.578Z,11.85
2023-05-19T06:36:24.638Z,11.93
2023-05-19T06:39:52.190Z,12.01
2023-05-19T06:43:14.215Z,12.10
2023-05-19T06:46:53.513Z,12.19
2023-05-19T06:50:15.937Z,12.26
2023-05-19T06:53:40.178Z,12.35
2023-05-19T06:57:03.985Z,12.44
2023-05-19T07:00:25.972Z,12.49
2023-05-19T07:03:49.095Z,12.57
2023-05-19T07:07:10.908Z,12.62
2023-05-19T07:10:34.375Z,12.70
2023-05-19T07:13:58.190Z,12.77
2023-05-19T07:17:23.059Z,12.85
2023-05-19T07:20:44.978Z,12.94
2023-05-19T07:24:07.260Z,13.02
2023-05-19T07:27:31.089Z,13.13
2023-05-19T07:30:53.199Z,13.21
2023-05-19T07:34:14.950Z,13.31
2023-05-19T07:37:36.371Z,13.36
2023-05-19T07:40:57.591Z,13.46
2023-05-19T07:44:21.374Z,13.57
2023-05-19T07:47:43.176Z,13.66
2023-05-19T07:51:05.623Z,13.74
2023-05-19T07:54:27.007Z,13.85
2023-05-19T07:57:48.898Z,13.95
2023-05-19T08:01:12.658Z,14.06
2023-05-19T08:04:34.605Z,14.16
2023-05-19T08:07:56.541Z,14.30
2023-05-19T08:11:18.084Z,14.38
2023-05-19T08:14:39.971Z,14.45
2023-05-19T08:18:02.976Z,14.57
2023-05-19T08:21:24.436Z,14.70
2023-05-19T08:24:45.851Z,14.81
2023-05-19T08:28:07.589Z,14.94
2023-05-19T08:31:29.395Z,15.07
2023-05-19T08:34:52.972Z,15.12
2023-05-19T08:38:14.368Z,15.26
2023-05-19T08:41:36.100Z,15.35
2023-05-19T08:44:58.002Z,15.47
2023-05-19T08:48:20.565Z,15.59
2023-05-19T08:51:51.595Z,15.71
2023-05-19T08:55:25.904Z,15.81
2023-05-19T08:58:50.042Z,15.91
2023-05-19T09:02:15.395Z,16.03
2023-05-19T09:05:36.978Z,16.11
2023-05-19T09:09:00.044Z,16.18
2023-05-19T09:12:22.443Z,16.24
2023-05-19T09:15:45.558Z,16.32
2023-05-19T09:19:15.413Z,16.39
2023-05-19T09:22:43.034Z,16.48
2023-05-19T09:26:08.036Z,16.59
2023-05-19T09:29:29.923Z,16.72
2023-05-19T09:32:53.051Z,16.84
2023-05-19T09:36:15.751Z,16.96
2023-05-19T09:39:37.414Z,17.09
2023-05-19T09:43:01.192Z,17.17
2023-05-19T09:46:28.377Z,17.28
2023-05-19T09:49:50.229Z,17.37
2023-05-19T09:53:14.901Z,17.41
2023-05-19T09:56:37.161Z,17.47
2023-05-19T10:00:01.499Z,17.53
2023-05-19T10:03:26.973Z,17.62
2023-05-19T10:06:53.589Z,17.67
2023-05-19T10:10:16.843Z,17.75
2023-05-19T10:13:40.583Z,17.73
2023-05-19T10:17:04.031Z,17.60
2023-05-19T10:20:27.493Z,17.68
2023-05-19T10:23:49.237Z,17.79
2023-05-19T10:27:15.349Z,17.87
2023-05-19T10:30:40.301Z,17.94
2023-05-19T10:34:22.235Z,17.99
2023-05-19T10:37:47.539Z,18.08
2023-05-19T10:41:14.162Z,18.22
2023-05-19T10:44:46.009Z,18.31
2023-05-19T10:48:12.228Z,18.36
2023-05-19T10:51:36.313Z,18.37
2023-05-19T10:54:58.276Z,18.41
2023-05-19T10:58:41.521Z,18.39
2023-05-19T11:02:05.495Z,18.38
2023-05-19T11:05:31.099Z,18.29
2023-05-19T11:09:12.600Z,18.27
2023-05-19T11:12:42.828Z,18.34
2023-05-19T11:16:08.946Z,18.42
2023-05-19T11:19:32.216Z,18.46
2023-05-19T11:23:07.368Z,18.53
2023-05-19T11:26:44.041Z,18.50
2023-05-19T11:30:14.919Z,18.50
2023-05-19T11:33:37.111Z,18.57
2023-05-19T11:36:59.466Z,18.58
2023-05-19T11:40:23.006Z,18.63
2023-05-19T11:43:48.915Z,18.65
2023-05-19T11:47:10.952Z,18.71
2023-05-19T11:50:33.614Z,18.72
2023-05-19T11:53:55.739Z,18.76
2023-05-19T11:57:17.384Z,18.74
2023-05-19T12:00:41.940Z,18.76
2023-05-19T12:04:04.144Z,18.84
2023-05-19T12:07:26.231Z,18.89
2023-05-19T12:10:51.156Z,18.92
2023-05-19T12:14:13.546Z,18.95
2023-05-19T12:17:37.002Z,18.94
2023-05-19T12:20:58.987Z,18.95
2023-05-19T12:24:21.486Z,18.94
2023-05-19T12:27:45.073Z,18.93
2023-05-19T12:31:07.604Z,18.92
2023-05-19T12:34:31.563Z,18.91
2023-05-19T12:37:53.315Z,18.90
2023-05-19T12:41:14.813Z,18.96
2023-05-19T12:44:38.386Z,19.02
2023-05-19T12:47:59.971Z,19.08
2023-05-19T12:51:23.000Z,19.15
2023-05-19T12:54:44.765Z,19.16
2023-05-19T12:58:08.448Z,19.19
2023-05-19T13:01:31.990Z,19.19
2023-05-19T13:04:54.367Z,19.22
2023-05-19T13:08:19.858Z,19.21
2023-05-19T13:11:43.533Z,19.21
2023-05-19T13:15:07.112Z,19.23
2023-05-19T13:18:32.106Z,19.29
2023-05-19T13:21:54.370Z,19.30
2023-05-19T13:25:18.220Z,19.34
2023-05-19T13:28:40.138Z,19.36
2023-05-19T13:32:02.002Z,19.37
2023-05-19T13:35:23.403Z,19.41
2023-05-19T13:38:45.193Z,19.41
2023-05-19T13:42:09.894Z,19.42
2023-05-19T13:45:31.667Z,19.48
2023-05-19T13:48:53.678Z,19.52
2023-05-19T13:52:15.472Z,19.57
2023-05-19T13:55:37.219Z,19.58
2023-05-19T13:59:00.510Z,19.60
2023-05-19T14:02:21.979Z,19.50
2023-05-19T14:05:43.819Z,19.40
2023-05-19T14:09:06.358Z,19.37
2023-05-19T14:12:38.140Z,19.38
2023-05-19T14:16:11.201Z,19.42
2023-05-19T14:19:32.819Z,19.37
2023-05-19T14:22:55.512Z,19.28
2023-05-19T14:26:17.250Z,19.29
2023-05-19T14:29:39.234Z,19.28
2023-05-19T14:33:02.762Z,19.25
2023-05-19T14:36:24.707Z,19.22
2023-05-19T14:39:46.629Z,19.20
2023-05-19T14:43:08.935Z,19.20
2023-05-19T14:46:30.926Z,19.11
2023-05-19T14:49:53.666Z,19.10
2023-05-19T14:53:15.492Z,19.11
2023-05-19T14:56:36.694Z,19.13
2023-05-19T14:59:58.340Z,19.14
2023-05-19T15:03:20.245Z,19.08
2023-05-19T15:06:44.357Z,19.04
2023-05-19T15:10:09.057Z,18.98
2023-05-19T15:13:31.392Z,18.94
2023-05-19T15:16:53.120Z,19.02
2023-05-19T15:20:14.369Z,19.09
2023-05-19T15:23:37.749Z,19.24
2023-05-19T15:26:59.373Z,19.42
2023-05-19T15:30:21.920Z,19.52
2023-05-19T15:33:43.602Z,19.60
2023-05-19T15:37:06.125Z,19.67
2023-05-19T15:40:29.311Z,19.62
2023-05-19T15:43:51.335Z,19.88
2023-05-19T15:47:12.999Z,20.16
2023-05-19T15:50:35.120Z,20.48
2023-05-19T15:53:57.392Z,20.64
2023-05-19T15:57:20.389Z,20.91
2023-05-19T16:00:42.009Z,21.15
2023-05-19T16:04:04.044Z,21.42
2023-05-19T16:07:25.489Z,21.69
2023-05-19T16:10:47.221Z,21.67
2023-05-19T16:14:10.411Z,21.51
2023-05-19T16:17:32.361Z,21.29
2023-05-19T16:20:53.708Z,21.31
2023-05-19T16:24:15.522Z,21.36
2023-05-19T16:27:37.487Z,21.45
2023-05-19T16:31:00.964Z,21.52
2023-05-19T16:34:22.485Z,21.56
2023-05-19T16:37:43.990Z,21.51
2023-05-19T16:41:07.751Z,21.54
2023-05-19T16:44:29.209Z,21.58
2023-05-19T16:47:52.237Z,21.68
2023-05-19T16:51:14.013Z,21.76
2023-05-19T16:54:36.235Z,21.85
2023-05-19T16:57:57.673Z,21.91
2023-05-19T17:01:19.703Z,21.96
2023-05-19T17:04:42.748Z,21.94
2023-05-19T17:08:04.820Z,21.89
2023-05-19T17:11:27.099Z,21.86
2023-05-19T17:14:50.377Z,21.80
2023-05-19T17:18:13.377Z,21.71
2023-05-19T17:21:36.549Z,21.53
2023-05-19T17:24:58.440Z,21.35
2023-05-19T17:28:20.454Z,21.19
2023-05-19T17:31:42.358Z,21.03
2023-05-19T17:35:06.496Z,20.88
2023-05-19T17:38:29.900Z,20.65
2023-05-19T17:41:51.594Z,20.48
2023-05-19T17:45:13.279Z,20.28
2023-05-19T17:48:36.235Z,20.13
2023-05-19T17:51:58.611Z,19.98
2023-05-19T17:55:24.769Z,19.81
2023-05-19T17:58:47.508Z,19.68
2023-05-19T18:02:10.403Z,19.52
2023-05-19T18:05:34.167Z,19.35
2023-05-19T18:08:59.081Z,19.20
2023-05-19T18:12:22.749Z,19.06
2023-05-19T18:15:44.278Z,18.92
2023-05-19T18:19:05.780Z,18.78
2023-05-19T18:22:27.530Z,18.66
2023-05-19T18:25:53.345Z,18.54
2023-05-19T18:29:16.383Z,18.41
2023-05-19T18:32:38.226Z,18.30
2023-05-19T18:36:00.460Z,18.18
2023-05-19T18:39:22.156Z,18.10
2023-05-19T18:42:44.126Z,18.02
2023-05-19T18:46:07.429Z,17.92
2023-05-19T18:49:29.010Z,17.82
2023-05-19T18:52:50.711Z,17.73
2023-05-19T18:56:12.860Z,17.65
2023-05-19T18:59:34.781Z,17.57
2023-05-19T19:02:57.717Z,17.48
2023-05-19T19:06:20.773Z,17.37
2023-05-19T19:09:43.816Z,17.28
2023-05-19T19:13:05.883Z,17.19
2023-05-19T19:16:27.430Z,17.05
2023-05-19T19:19:50.870Z,16.94
2023-05-19T19:23:12.615Z,16.82
2023-05-19T19:26:34.844Z,16.70
2023-05-19T19:29:56.411Z,16.62
2023-05-19T19:33:18.545Z,16.52
2023-05-19T19:36:41.598Z,16.44
2023-05-19T19:40:03.435Z,16.35
2023-05-19T19:43:25.305Z,16.26
2023-05-19T19:46:47.194Z,16.16
2023-05-19T19:50:10.680Z,16.06
2023-05-19T19:53:33.727Z,15.97
2023-05-19T19:56:55.024Z,15.87
2023-05-19T20:00:17.356Z,15.76
2023-05-19T20:03:39.087Z,15.66
2023-05-19T20:07:00.711Z,15.58
2023-05-19T20:10:23.750Z,15.49
2023-05-19T20:13:46.376Z,15.40
2023-05-19T20:17:08.041Z,15.31
2023-05-19T20:20:29.340Z,15.22
2023-05-19T20:23:51.149Z,15.11
2023-05-19T20:27:14.513Z,15.00
2023-05-19T20:30:36.476Z,14.89
2023-05-19T20:33:59.343Z,14.78
2023-05-19T20:37:22.778Z,14.64
2023-05-19T20:40:44.253Z,14.52
2023-05-19T20:44:08.535Z,14.41
2023-05-19T20:47:30.638Z,14.34
2023-05-19T20:50:52.433Z,14.24
2023-05-19T20:54:14.279Z,14.17
2023-05-19T20:57:36.262Z,14.08
2023-05-19T21:00:59.665Z,13.99
2023-05-19T21:04:21.511Z,13.89
2023-05-19T21:07:42.947Z,13.85
2023-05-19T21:11:04.354Z,13.82
2023-05-19T21:14:26.485Z,13.74
2023-05-19T21:17:49.710Z,13.68
2023-05-19T21:21:11.160Z,13.64
2023-05-19T21:24:33.243Z,13.58
2023-05-19T21:27:56.059Z,13.55
2023-05-19T21:31:18.034Z,13.49
2023-05-19T21:34:41.112Z,13.44
2023-05-19T21:38:11.996Z,13.37
2023-05-19T21:41:37.926Z,13.34
2023-05-19T21:44:59.432Z,13.28
2023-05-19T21:48:21.640Z,13.21
2023-05-19T21:51:44.810Z,13.17
2023-05-19T21:55:07.934Z,13.13
2023-05-19T21:58:29.756Z,13.11
2023-05-19T22:01:51.051Z,13.13
2023-05-19T22:05:12.772Z,13.14
2023-05-19T22:08:35.824Z,13.15
2023-05-19T22:11:57.400Z,13.16
2023-05-19T22:15:19.273Z,13.16
2023-05-19T22:18:40.959Z,13.14
2023-05-19T22:22:13.133Z,13.15
2023-05-19T22:25:36.728Z,13.15
2023-05-19T22:28:58.744Z,13.14
2023-05-19T22:32:20.095Z,13.14
2023-05-19T22:35:42.997Z,13.11
2023-05-19T22:39:04.383Z,13.09
2023-05-19T22:42:27.913Z,13.07
2023-05-19T22:45:49.586Z,13.04
2023-05-19T22:49:11.802Z,12.99
2023-05-19T22:52:32.998Z,12.93
2023-05-19T22:55:54.806Z,12.83
2023-05-19T22:59:18.865Z,12.73
2023-05-19T23:02:40.603Z,12.66
2023-05-19T23:06:01.962Z,12.56
2023-05-19T23:09:23.475Z,12.50
2023-05-19T23:12:44.908Z,12.42
2023-05-19T23:16:08.603Z,12.35
2023-05-19T23:19:31.851Z,12.29
2023-05-19T23:22:53.333Z,12.20
2023-05-19T23:26:15.206Z,12.17
2023-05-19T23:29:36.526Z,12.11
2023-05-19T23:32:59.766Z,12.05
2023-05-19T23:36:21.757Z,11.98
2023-05-19T23:39:43.368Z,11.93
2023-05-19T23:43:05.440Z,11.90
2023-05-19T23:46:27.181Z,11.82
2023-05-19T23:49:50.225Z,11.75
2023-05-19T23:53:12.210Z,11.73
2023-05-19T23:56:33.748Z,11.69
2023-05-19T23:59:55.698Z,11.65
